Flight Track Log - Related Links

Times and Time Zones

All times are in EDT time to prevent confusion due to time zone crossing. See the BER6299 flight status page for this flight to view local times or setup timezone preferences in your user account.

Time Position Orientation Groundspeed Altitude Reporting Facility
EDT Latitude Longitude Course Direction KTS MPH feet Rate Location/Type
Wed 02:37:00 AM 52.4696 10.4211 167° South  Level Estimated
Wed 02:38:00 AM 52.3922 10.4492 168° South  Level Estimated
Wed 02:39:00 AM 52.3147 10.4771 168° South  Level Estimated
Wed 02:40:00 AM 52.2373 10.5050 168° South  Level Estimated
Wed 02:41:00 AM 52.1598 10.5327 168° South  Level Estimated
Wed 02:42:00 AM 52.0824 10.5604 168° South  Level Estimated
Wed 02:43:00 AM 52.0049 10.5879 168° South  Level Estimated
Wed 02:44:00 AM 51.9274 10.6154 168° South  Level Estimated
Wed 02:45:00 AM 51.8499 10.6428 168° South  Level Estimated
Wed 02:46:00 AM 51.7724 10.6700 168° South  Level Estimated
Wed 02:47:00 AM 51.6949 10.6972 168° South  Level Estimated
Wed 02:48:00 AM 51.6174 10.7243 168° South  Level Estimated
Wed 02:49:00 AM 51.5399 10.7513 168° South  Level Estimated
Wed 02:50:00 AM 51.4624 10.7782 168° South  Level Estimated
Wed 02:51:00 AM 51.3849 10.8050 168° South  Level Estimated
Wed 02:52:00 AM 51.3074 10.8317 168° South  Level Estimated
Wed 02:53:00 AM 51.2298 10.8584 168° South  Level Estimated
Wed 02:54:00 AM 51.1523 10.8849 168° South  Level Estimated
Wed 02:55:00 AM 51.0747 10.9114 168° South  Level Estimated
Wed 02:56:00 AM 50.9972 10.9377 168° South  Level Estimated
Wed 02:57:00 AM 50.9196 10.9640 168° South  Level Estimated
Wed 02:58:00 AM 50.8421 10.9902 168° South  Level Estimated
Wed 02:59:00 AM 50.7645 11.0163 168° South  Level Estimated
Wed 03:00:00 AM 50.6869 11.0423 168° South  Level Estimated
Wed 03:01:00 AM 50.6093 11.0682 168° South  Level Estimated
Wed 03:02:00 AM 50.5317 11.0941 168° South  Level Estimated
Wed 03:03:00 AM 50.4542 11.1199 168° South  Level Estimated
Wed 03:04:00 AM 50.3765 11.1455 168° South  Level Estimated
Wed 03:05:00 AM 50.2990 11.1711 168° South  Level Estimated
Wed 03:06:00 AM 50.2213 11.1966 168° South  Level Estimated
Wed 03:07:00 AM 50.1437 11.2221 168° South  Level Estimated
Wed 03:08:00 AM 50.0661 11.2474 168° South  Level Estimated
Wed 03:09:00 AM 49.9885 11.2727 168° South  Level Estimated
Wed 03:10:00 AM 49.9108 11.2978 168° South  Level Estimated
Wed 03:11:00 AM 49.8332 11.3230 168° South  Level Estimated
Wed 03:12:00 AM 49.7556 11.3480 168° South  Level Estimated
Wed 03:13:00 AM 49.6779 11.3729 168° South  Level Estimated
Wed 03:14:00 AM 49.6003 11.3978 168° South  Level Estimated
Wed 03:15:00 AM 49.5226 11.4226 168° South  Level Estimated
Wed 03:16:00 AM 49.4449 11.4473 168° South  Level Estimated
Wed 03:17:00 AM 49.3673 11.4719 168° South  Level Estimated
Wed 03:18:00 AM 49.2896 11.4964 168° South  Level Estimated
Wed 03:19:00 AM 49.2119 11.5209 168° South  Level Estimated
Wed 03:20:00 AM 49.1342 11.5453 168° South  Level Estimated
Wed 03:21:00 AM 49.0565 11.5696 168° South  Level Estimated
Wed 03:22:00 AM 48.9789 11.5938 168° South  Level Estimated
Wed 03:23:00 AM 48.9011 11.6180 168° South  Level Estimated
Wed 03:24:00 AM 48.8234 11.6421 168° South  Level Estimated
Wed 03:25:00 AM 48.7457 11.6661 168° South  Level Estimated
Wed 03:26:00 AM 48.6680 11.6901 169° South  Level Estimated
Wed 03:27:00 AM 48.5903 11.7139 169° South  Level Estimated
Wed 03:28:00 AM 48.5126 11.7377 169° South  Level Estimated
Wed 03:29:00 AM 48.4348 11.7614 169° South  Level Estimated
Wed 03:30:00 AM 48.3571 11.7851 169° South  Level Estimated
Wed 03:31:00 AM 48.3538 11.7861 169° South  Level Estimated
Wed 03:32:00 AM 48.3538 11.7861 318° Northwest  Level Estimated
Wed 03:33:00 AM 48.3538 11.7861 318° Northwest  Level Estimated
Wed 03:34:00 AM 48.3538 11.7861 318° Northwest  Level Estimated
Wed 03:35:00 AM 48.3538 11.7861 318° Northwest  Level Estimated

Login

Don't have an account? Register now (free) for customized features, flight alerts, and more!